createdAt,value
2023-05-21T00:02:35.864Z,25.63
2023-05-21T00:07:37.668Z,24.17
2023-05-21T00:12:39.381Z,24.70
2023-05-21T00:17:41.128Z,26.23
2023-05-21T00:22:43.844Z,26.45
2023-05-21T00:27:45.574Z,24.92
2023-05-21T00:32:47.589Z,24.80
2023-05-21T00:37:50.151Z,24.38
2023-05-21T00:42:53.638Z,25.20
2023-05-21T00:47:55.897Z,24.38
2023-05-21T00:52:59.745Z,24.33
2023-05-21T00:58:01.496Z,25.08
2023-05-21T01:03:04.582Z,27.30
2023-05-21T01:08:07.670Z,26.58
2023-05-21T01:13:09.740Z,28.08
2023-05-21T01:18:14.355Z,25.83
2023-05-21T01:23:20.093Z,27.40
2023-05-21T01:28:22.199Z,29.40
2023-05-21T01:33:32.235Z,27.73
2023-05-21T01:38:41.335Z,28.90
2023-05-21T01:43:45.646Z,28.38
2023-05-21T01:48:49.042Z,28.75
2023-05-21T01:53:50.803Z,28.90
2023-05-21T01:58:52.757Z,29.05
2023-05-21T02:03:54.519Z,28.77
2023-05-21T02:08:56.601Z,27.50
2023-05-21T02:13:58.815Z,28.88
2023-05-21T02:19:00.709Z,27.33
2023-05-21T02:24:02.600Z,28.42
2023-05-21T02:29:04.458Z,28.13
2023-05-21T02:34:08.141Z,27.50
2023-05-21T02:39:09.933Z,26.58
2023-05-21T02:44:11.919Z,27.35
2023-05-21T02:49:13.714Z,26.45
2023-05-21T02:54:17.748Z,26.15
2023-05-21T02:59:19.579Z,29.02
2023-05-21T03:04:21.856Z,27.88
2023-05-21T03:09:24.315Z,29.73
2023-05-21T03:14:26.097Z,29.77
2023-05-21T03:19:30.537Z,29.75
2023-05-21T03:24:33.151Z,29.40
2023-05-21T03:29:37.638Z,29.98
2023-05-21T03:34:41.401Z,30.70
2023-05-21T03:39:43.534Z,29.58
2023-05-21T03:44:45.965Z,30.50
2023-05-21T03:50:05.778Z,29.90
2023-05-21T03:55:08.209Z,30.92
2023-05-21T04:00:10.893Z,31.30
2023-05-21T04:05:18.733Z,30.42
2023-05-21T04:10:20.736Z,30.65
2023-05-21T04:15:24.661Z,28.38
2023-05-21T04:20:26.650Z,28.92
2023-05-21T04:25:28.601Z,29.45
2023-05-21T04:30:30.577Z,29.98
2023-05-21T04:35:32.390Z,29.33
2023-05-21T04:40:36.702Z,28.90
2023-05-21T04:45:39.105Z,29.20
2023-05-21T04:50:41.613Z,28.10
2023-05-21T04:55:43.457Z,28.67
2023-05-21T05:00:51.626Z,29.02
2023-05-21T05:05:53.859Z,26.98
2023-05-21T05:10:55.871Z,26.08
2023-05-21T05:15:57.598Z,24.10
2023-05-21T05:20:59.659Z,23.20
2023-05-21T05:26:01.735Z,21.98
2023-05-21T05:31:03.728Z,22.38
2023-05-21T05:36:07.461Z,22.42
2023-05-21T05:41:09.598Z,21.73
2023-05-21T05:46:11.425Z,21.83
2023-05-21T05:51:15.474Z,19.08
2023-05-21T05:56:17.561Z,19.23
2023-05-21T06:01:20.363Z,18.98
2023-05-21T06:06:22.356Z,19.35
2023-05-21T06:11:24.174Z,17.25
2023-05-21T06:16:25.964Z,16.80
2023-05-21T06:21:28.216Z,15.95
2023-05-21T06:26:30.859Z,17.33
2023-05-21T06:31:34.005Z,17.67
2023-05-21T06:36:35.846Z,17.05
2023-05-21T06:41:37.533Z,15.90
2023-05-21T06:46:58.825Z,17.95
2023-05-21T06:52:00.549Z,14.68
2023-05-21T06:57:02.510Z,16.25
2023-05-21T07:02:06.611Z,15.60
2023-05-21T07:07:08.717Z,14.35
2023-05-21T07:12:10.926Z,15.45
2023-05-21T07:17:12.793Z,15.63
2023-05-21T07:22:14.812Z,15.05
2023-05-21T07:27:25.344Z,14.13
2023-05-21T07:32:29.458Z,13.93
2023-05-21T07:37:31.849Z,14.55
2023-05-21T07:42:35.739Z,14.27
2023-05-21T07:47:38.555Z,13.18
2023-05-21T07:52:40.653Z,14.20
2023-05-21T07:57:42.971Z,14.98
2023-05-21T08:02:50.506Z,13.10
2023-05-21T08:07:52.768Z,12.68
2023-05-21T08:12:55.457Z,13.88
2023-05-21T08:17:57.859Z,13.52
2023-05-21T08:23:00.918Z,12.43
2023-05-21T08:28:07.201Z,13.43
2023-05-21T08:33:10.005Z,13.55
2023-05-21T08:38:11.906Z,13.00
2023-05-21T08:43:21.194Z,12.52
2023-05-21T08:48:24.514Z,13.15
2023-05-21T08:53:29.619Z,11.85
2023-05-21T08:58:33.787Z,11.35
2023-05-21T09:03:39.748Z,11.73
2023-05-21T09:08:48.072Z,11.88
2023-05-21T09:13:56.331Z,11.43
2023-05-21T09:19:04.965Z,11.27
2023-05-21T09:24:11.148Z,10.85
2023-05-21T09:29:13.702Z,11.13
2023-05-21T09:34:15.945Z,11.18
2023-05-21T09:39:30.036Z,10.82
2023-05-21T09:44:35.562Z,9.40
2023-05-21T09:49:38.057Z,10.05
2023-05-21T09:54:40.110Z,11.20
2023-05-21T09:59:43.139Z,10.25
2023-05-21T10:04:49.214Z,9.90
2023-05-21T10:09:53.614Z,9.70
2023-05-21T10:15:01.320Z,10.15
2023-05-21T10:20:04.943Z,10.13
2023-05-21T10:25:10.108Z,8.88
2023-05-21T10:35:16.340Z,9.43
2023-05-21T10:40:18.255Z,10.07
2023-05-21T10:45:46.606Z,9.40
2023-05-21T10:51:03.757Z,8.77
2023-05-21T10:56:33.462Z,9.10
2023-05-21T11:01:38.014Z,9.18
2023-05-21T11:06:39.852Z,8.13
2023-05-21T11:11:48.380Z,7.13
2023-05-21T11:16:50.285Z,7.68
2023-05-21T11:21:52.224Z,6.75
2023-05-21T11:26:58.599Z,6.68
2023-05-21T11:32:05.514Z,7.07
2023-05-21T11:37:29.280Z,7.10
2023-05-21T11:42:35.521Z,7.20
2023-05-21T11:47:37.361Z,7.00
2023-05-21T11:52:40.620Z,7.07
2023-05-21T11:57:48.218Z,7.18
2023-05-21T12:02:53.812Z,7.68
2023-05-21T12:07:56.701Z,6.53
2023-05-21T12:12:58.745Z,5.80
2023-05-21T12:18:01.341Z,6.72
2023-05-21T12:23:03.181Z,6.72
2023-05-21T12:28:05.443Z,7.53
2023-05-21T12:33:07.283Z,7.50
2023-05-21T12:38:09.792Z,8.38
2023-05-21T12:43:11.739Z,8.70
2023-05-21T12:48:13.512Z,8.32
2023-05-21T12:53:15.318Z,8.73
2023-05-21T12:58:22.153Z,8.32
2023-05-21T13:03:23.865Z,7.88
2023-05-21T13:08:25.868Z,8.57
2023-05-21T13:13:27.558Z,7.75
2023-05-21T13:18:29.445Z,8.00
2023-05-21T13:23:31.227Z,8.88
2023-05-21T13:28:32.948Z,8.75
2023-05-21T13:33:34.795Z,10.15
2023-05-21T13:38:36.658Z,9.93
2023-05-21T13:43:42.012Z,9.55
2023-05-21T13:53:45.886Z,9.48
2023-05-21T13:58:47.746Z,9.10
2023-05-21T14:03:49.489Z,9.27
2023-05-21T14:08:51.332Z,8.23
2023-05-21T14:13:53.618Z,6.88
2023-05-21T14:18:57.006Z,5.97
2023-05-21T14:23:58.837Z,6.40
2023-05-21T14:29:00.640Z,6.30
2023-05-21T14:34:06.956Z,7.70
2023-05-21T14:39:08.670Z,6.50
2023-05-21T14:44:10.426Z,6.20
2023-05-21T14:49:12.789Z,6.15
2023-05-21T14:54:14.789Z,5.70
2023-05-21T14:59:16.881Z,4.95
2023-05-21T15:04:19.014Z,5.03
2023-05-21T15:09:20.965Z,5.13
2023-05-21T15:14:22.699Z,5.25
2023-05-21T15:19:24.512Z,5.65
2023-05-21T15:24:26.290Z,6.25
2023-05-21T15:29:28.204Z,6.18
2023-05-21T15:34:29.919Z,6.22
2023-05-21T15:39:31.774Z,5.95
2023-05-21T15:44:33.670Z,6.22
2023-05-21T15:49:35.610Z,6.68
2023-05-21T15:54:37.265Z,5.97
2023-05-21T15:59:38.962Z,8.48
2023-05-21T16:04:40.675Z,4.45
2023-05-21T16:09:42.380Z,5.10
2023-05-21T16:14:44.113Z,5.10
2023-05-21T16:19:45.854Z,4.35
2023-05-21T16:24:48.252Z,4.50
2023-05-21T16:29:50.018Z,4.88
2023-05-21T16:34:51.695Z,5.05
2023-05-21T16:39:53.412Z,4.72
2023-05-21T16:44:55.071Z,5.25
2023-05-21T16:49:56.831Z,5.03
2023-05-21T16:54:58.564Z,5.10
2023-05-21T17:00:01.861Z,4.70
2023-05-21T17:05:03.812Z,4.53
2023-05-21T17:10:06.377Z,4.68
2023-05-21T17:15:08.507Z,4.40
2023-05-21T17:20:10.898Z,4.75
2023-05-21T17:25:12.624Z,4.72
2023-05-21T17:30:14.360Z,4.35
2023-05-21T17:35:16.033Z,4.75
2023-05-21T17:40:20.305Z,4.63
2023-05-21T17:45:22.031Z,4.45
2023-05-21T17:50:23.764Z,4.80
2023-05-21T17:55:25.657Z,4.85
2023-05-21T18:00:27.317Z,4.70
2023-05-21T18:05:29.035Z,4.47
2023-05-21T18:10:30.784Z,5.00
2023-05-21T18:15:33.212Z,4.97
2023-05-21T18:20:35.286Z,5.10
2023-05-21T18:25:37.761Z,4.68
2023-05-21T18:30:39.614Z,5.22
2023-05-21T18:35:43.260Z,5.03
2023-05-21T18:40:45.882Z,5.13
2023-05-21T18:45:47.616Z,4.95
2023-05-21T18:50:49.453Z,5.20
2023-05-21T18:55:51.350Z,5.65
2023-05-21T19:00:53.071Z,5.68
2023-05-21T19:05:55.060Z,5.22
2023-05-21T19:10:56.779Z,5.00
2023-05-21T19:15:58.693Z,4.90
2023-05-21T19:21:00.491Z,4.85
2023-05-21T19:26:02.805Z,5.40
2023-05-21T19:31:04.542Z,4.57
2023-05-21T19:36:06.660Z,4.72
2023-05-21T19:41:08.317Z,4.45
2023-05-21T19:46:10.240Z,4.55
2023-05-21T19:51:12.147Z,4.60
2023-05-21T19:56:14.192Z,4.68
2023-05-21T20:01:16.697Z,4.70
2023-05-21T20:06:20.570Z,4.22
2023-05-21T20:11:22.625Z,4.05
2023-05-21T20:16:24.732Z,4.93
2023-05-21T20:21:26.600Z,5.07
2023-05-21T20:26:28.300Z,5.30
2023-05-21T20:31:30.393Z,5.43
2023-05-21T20:36:33.909Z,5.25
2023-05-21T20:41:37.700Z,5.78
2023-05-21T20:46:39.629Z,6.20
2023-05-21T20:51:41.472Z,5.53
2023-05-21T20:56:45.049Z,5.47
2023-05-21T21:01:46.933Z,5.82
2023-05-21T21:06:50.252Z,6.60
2023-05-21T21:11:51.961Z,5.90
2023-05-21T21:16:53.698Z,6.57
2023-05-21T21:21:55.881Z,6.65
2023-05-21T21:26:57.803Z,6.70
2023-05-21T21:31:59.472Z,7.45
2023-05-21T21:37:01.174Z,6.60
2023-05-21T21:42:03.010Z,6.43
2023-05-21T21:47:05.358Z,7.43
2023-05-21T21:52:07.172Z,7.38
2023-05-21T21:57:08.997Z,6.75
2023-05-21T22:02:10.812Z,6.68
2023-05-21T22:07:18.079Z,7.88
2023-05-21T22:12:19.844Z,6.82
2023-05-21T22:17:21.650Z,7.20
2023-05-21T22:22:24.327Z,7.00
2023-05-21T22:27:26.143Z,7.28
2023-05-21T22:32:27.944Z,7.00
2023-05-21T22:37:29.984Z,7.82
2023-05-21T22:42:32.480Z,8.02
2023-05-21T22:47:37.087Z,7.57
2023-05-21T22:52:39.317Z,8.35
2023-05-21T22:57:41.172Z,8.18
2023-05-21T23:02:42.941Z,8.32
2023-05-21T23:07:44.743Z,8.35
2023-05-21T23:12:46.478Z,7.07
2023-05-21T23:17:48.382Z,8.02
2023-05-21T23:22:50.154Z,7.85
2023-05-21T23:27:51.901Z,7.63
2023-05-21T23:32:53.679Z,8.15
2023-05-21T23:37:55.602Z,8.15
2023-05-21T23:42:57.432Z,8.23
2023-05-21T23:47:59.177Z,8.02
2023-05-21T23:53:00.924Z,8.43
2023-05-21T23:58:04.023Z,7.35
